Terminal Aerodrome Forecast
Issued by NWS

Home | Current Version | Previous Version | Graphics & Text | Print | Product List | Glossary On
Versions: 1 2 3 4 5 6 7 8 9 10 11 12 13 14 15 16
000
FTUS43 KBIS 291134
TAFDIK
TAF
KDIK 291134Z 2912/3012 02011KT P6SM SCT110 BKN150
     FM291400 04011KT P6SM SCT140
     FM292000 06011KT P6SM SKC
     FM300100 09007KT P6SM SKC
     FM300500 13006KT P6SM SKC=

USA.gov is the U.S. government's official web portal to all federal, state and local government web resources and services.